Strona główna
METAR-TAF:

METAR-TAF

Lotnisko :

RAF

Spadeadam, Anglia

Szerokość geograficzna: 55-03N, Długość geograficzna: 002-33W, wysokość: 325 m

Aktualna obserwacja pogody

Raport powstał 1 godzina i 26 minut temu, godzina 12:50 UTC
Wiatr 9 kt od wschodnio-południowy wschód
Temperatura 11°C
Wilgotność 62%
Ciśnienie 999 hPa
Widzialność 10 km lub więcej

METAR: EGOM 151250Z AUTO 11009KT 9999 FEW025/// BKN049/// 11/04 Q0999

czas: 15:16 (14:16 UTC)


TAF: brakujący

Obserwacja i prognoza pogody dla ponad 4000 lotnisk (raport METAR i TAF).

Dostępne stacje oznaczono żółtymi i czerwonymi punktami na mapie.

Najedź kursorem aby zobaczyć nazwę stacji.

Kliknij aby zobaczyć obserwacje i prognozy pogody.

Aby zmienić mapę: kliknij na zielony przycisk z czarnym krzyżykiem, aby powiększyć; na zielony przycisk z myślnikiem, aby pomniejszyć; na zielone strzałki, aby przejść do map sąsiednich.


METAR-TAF: